sensor_id;sensor_type;location;lat;lon;timestamp;P1;durP1;ratioP1;P2;durP2;ratioP2
52188;SDS011;38162;45.926;13.608;2023-08-01T00:00:50;5.97;;;1.70;;
52188;SDS011;38162;45.926;13.608;2023-08-01T00:03:16;4.68;;;1.80;;
52188;SDS011;38162;45.926;13.608;2023-08-01T00:05:42;7.10;;;2.15;;
52188;SDS011;38162;45.926;13.608;2023-08-01T00:08:10;6.65;;;2.15;;
52188;SDS011;38162;45.926;13.608;2023-08-01T00:10:38;5.28;;;2.70;;
52188;SDS011;38162;45.926;13.608;2023-08-01T00:13:04;5.15;;;2.70;;
52188;SDS011;38162;45.926;13.608;2023-08-01T00:15:30;5.15;;;2.50;;
52188;SDS011;38162;45.926;13.608;2023-08-01T00:17:56;5.82;;;3.25;;
52188;SDS011;38162;45.926;13.608;2023-08-01T00:20:21;7.15;;;3.00;;
52188;SDS011;38162;45.926;13.608;2023-08-01T00:22:47;7.65;;;3.22;;
52188;SDS011;38162;45.926;13.608;2023-08-01T00:25:13;6.97;;;2.95;;
52188;SDS011;38162;45.926;13.608;2023-08-01T00:27:39;6.93;;;2.97;;
52188;SDS011;38162;45.926;13.608;2023-08-01T00:30:05;7.30;;;2.33;;
52188;SDS011;38162;45.926;13.608;2023-08-01T00:32:32;5.10;;;2.40;;
52188;SDS011;38162;45.926;13.608;2023-08-01T00:34:57;7.28;;;2.70;;
52188;SDS011;38162;45.926;13.608;2023-08-01T00:37:23;4.43;;;2.50;;
52188;SDS011;38162;45.926;13.608;2023-08-01T00:39:49;6.78;;;2.50;;
52188;SDS011;38162;45.926;13.608;2023-08-01T00:42:15;5.88;;;2.75;;
52188;SDS011;38162;45.926;13.608;2023-08-01T00:44:41;5.78;;;2.30;;
52188;SDS011;38162;45.926;13.608;2023-08-01T00:47:07;3.67;;;2.03;;
52188;SDS011;38162;45.926;13.608;2023-08-01T00:49:34;6.10;;;2.15;;
52188;SDS011;38162;45.926;13.608;2023-08-01T00:52:00;4.55;;;2.03;;
52188;SDS011;38162;45.926;13.608;2023-08-01T00:54:26;10.70;;;2.40;;
52188;SDS011;38162;45.926;13.608;2023-08-01T00:56:52;6.68;;;2.60;;
52188;SDS011;38162;45.926;13.608;2023-08-01T00:59:18;13.02;;;2.17;;
52188;SDS011;38162;45.926;13.608;2023-08-01T01:01:44;4.20;;;1.85;;
52188;SDS011;38162;45.926;13.608;2023-08-01T01:04:10;3.15;;;1.80;;
52188;SDS011;38162;45.926;13.608;2023-08-01T01:06:45;4.22;;;2.00;;
52188;SDS011;38162;45.926;13.608;2023-08-01T01:09:18;6.07;;;1.95;;
52188;SDS011;38162;45.926;13.608;2023-08-01T01:11:45;4.35;;;2.05;;
52188;SDS011;38162;45.926;13.608;2023-08-01T01:14:12;6.25;;;1.75;;
52188;SDS011;38162;45.926;13.608;2023-08-01T01:16:38;6.13;;;1.83;;
52188;SDS011;38162;45.926;13.608;2023-08-01T01:19:06;7.70;;;1.90;;
52188;SDS011;38162;45.926;13.608;2023-08-01T01:21:34;7.68;;;1.90;;
52188;SDS011;38162;45.926;13.608;2023-08-01T01:24:06;4.88;;;2.08;;
52188;SDS011;38162;45.926;13.608;2023-08-01T01:26:34;4.82;;;1.92;;
52188;SDS011;38162;45.926;13.608;2023-08-01T01:29:02;8.68;;;1.80;;
52188;SDS011;38162;45.926;13.608;2023-08-01T01:31:30;5.28;;;2.10;;
52188;SDS011;38162;45.926;13.608;2023-08-01T01:33:58;4.07;;;1.85;;
52188;SDS011;38162;45.926;13.608;2023-08-01T01:36:24;2.60;;;1.88;;
52188;SDS011;38162;45.926;13.608;2023-08-01T01:38:50;3.17;;;1.85;;
52188;SDS011;38162;45.926;13.608;2023-08-01T01:41:16;8.77;;;2.00;;
52188;SDS011;38162;45.926;13.608;2023-08-01T01:43:41;7.03;;;1.70;;
52188;SDS011;38162;45.926;13.608;2023-08-01T01:46:07;5.32;;;1.80;;
52188;SDS011;38162;45.926;13.608;2023-08-01T01:48:33;6.30;;;1.98;;
52188;SDS011;38162;45.926;13.608;2023-08-01T01:50:58;4.13;;;2.55;;
52188;SDS011;38162;45.926;13.608;2023-08-01T01:53:24;4.55;;;1.80;;
52188;SDS011;38162;45.926;13.608;2023-08-01T01:55:50;8.60;;;1.73;;
52188;SDS011;38162;45.926;13.608;2023-08-01T01:58:16;6.55;;;2.78;;
52188;SDS011;38162;45.926;13.608;2023-08-01T02:00:41;4.32;;;1.98;;
52188;SDS011;38162;45.926;13.608;2023-08-01T02:03:07;8.52;;;1.92;;
52188;SDS011;38162;45.926;13.608;2023-08-01T02:05:35;2.97;;;1.75;;
52188;SDS011;38162;45.926;13.608;2023-08-01T02:08:02;7.78;;;2.00;;
52188;SDS011;38162;45.926;13.608;2023-08-01T02:10:29;3.85;;;1.95;;
52188;SDS011;38162;45.926;13.608;2023-08-01T02:12:55;4.15;;;1.90;;
52188;SDS011;38162;45.926;13.608;2023-08-01T02:15:21;7.15;;;2.58;;
52188;SDS011;38162;45.926;13.608;2023-08-01T02:17:46;2.88;;;1.90;;
52188;SDS011;38162;45.926;13.608;2023-08-01T02:20:12;3.17;;;1.90;;
52188;SDS011;38162;45.926;13.608;2023-08-01T02:22:38;3.85;;;2.03;;
52188;SDS011;38162;45.926;13.608;2023-08-01T02:25:04;8.60;;;2.00;;
52188;SDS011;38162;45.926;13.608;2023-08-01T02:27:30;3.00;;;1.88;;
52188;SDS011;38162;45.926;13.608;2023-08-01T02:29:56;4.50;;;2.03;;
52188;SDS011;38162;45.926;13.608;2023-08-01T02:32:21;7.53;;;1.88;;
52188;SDS011;38162;45.926;13.608;2023-08-01T02:34:47;4.43;;;1.70;;
52188;SDS011;38162;45.926;13.608;2023-08-01T02:37:13;7.30;;;1.90;;
52188;SDS011;38162;45.926;13.608;2023-08-01T02:39:39;4.78;;;2.10;;
52188;SDS011;38162;45.926;13.608;2023-08-01T02:42:04;5.25;;;1.77;;
52188;SDS011;38162;45.926;13.608;2023-08-01T02:44:30;5.93;;;1.80;;
52188;SDS011;38162;45.926;13.608;2023-08-01T02:46:56;3.58;;;1.70;;
52188;SDS011;38162;45.926;13.608;2023-08-01T02:49:22;5.15;;;1.60;;
52188;SDS011;38162;45.926;13.608;2023-08-01T02:51:48;4.90;;;1.80;;
52188;SDS011;38162;45.926;13.608;2023-08-01T02:54:13;3.33;;;1.52;;
52188;SDS011;38162;45.926;13.608;2023-08-01T02:56:39;5.55;;;1.70;;
52188;SDS011;38162;45.926;13.608;2023-08-01T02:59:09;6.38;;;2.00;;
52188;SDS011;38162;45.926;13.608;2023-08-01T03:01:35;5.63;;;2.40;;
52188;SDS011;38162;45.926;13.608;2023-08-01T03:04:02;4.43;;;2.20;;
52188;SDS011;38162;45.926;13.608;2023-08-01T03:06:29;6.22;;;2.20;;
52188;SDS011;38162;45.926;13.608;2023-08-01T03:08:55;3.17;;;2.08;;
52188;SDS011;38162;45.926;13.608;2023-08-01T03:11:21;6.35;;;2.20;;
52188;SDS011;38162;45.926;13.608;2023-08-01T03:13:47;8.55;;;2.10;;
52188;SDS011;38162;45.926;13.608;2023-08-01T03:16:12;3.78;;;1.98;;
52188;SDS011;38162;45.926;13.608;2023-08-01T03:18:38;13.75;;;2.90;;
52188;SDS011;38162;45.926;13.608;2023-08-01T03:21:04;7.57;;;2.40;;
52188;SDS011;38162;45.926;13.608;2023-08-01T03:23:30;9.27;;;2.50;;
52188;SDS011;38162;45.926;13.608;2023-08-01T03:25:55;9.20;;;2.05;;
52188;SDS011;38162;45.926;13.608;2023-08-01T03:28:21;6.22;;;2.20;;
52188;SDS011;38162;45.926;13.608;2023-08-01T03:30:47;5.90;;;2.22;;
52188;SDS011;38162;45.926;13.608;2023-08-01T03:33:15;4.22;;;1.90;;
52188;SDS011;38162;45.926;13.608;2023-08-01T03:35:41;4.80;;;2.22;;
52188;SDS011;38162;45.926;13.608;2023-08-01T03:38:07;8.77;;;2.55;;
52188;SDS011;38162;45.926;13.608;2023-08-01T03:40:33;6.32;;;2.10;;
52188;SDS011;38162;45.926;13.608;2023-08-01T03:42:58;5.20;;;2.20;;
52188;SDS011;38162;45.926;13.608;2023-08-01T03:45:24;3.90;;;2.13;;
52188;SDS011;38162;45.926;13.608;2023-08-01T03:47:50;8.95;;;2.40;;
52188;SDS011;38162;45.926;13.608;2023-08-01T03:50:16;5.22;;;2.08;;
52188;SDS011;38162;45.926;13.608;2023-08-01T03:52:42;6.10;;;2.75;;
52188;SDS011;38162;45.926;13.608;2023-08-01T03:55:07;3.20;;;2.50;;
52188;SDS011;38162;45.926;13.608;2023-08-01T03:57:33;8.65;;;2.42;;
52188;SDS011;38162;45.926;13.608;2023-08-01T03:59:59;5.03;;;2.13;;
52188;SDS011;38162;45.926;13.608;2023-08-01T04:02:25;7.47;;;2.70;;
52188;SDS011;38162;45.926;13.608;2023-08-01T04:04:51;5.47;;;2.28;;
52188;SDS011;38162;45.926;13.608;2023-08-01T04:07:18;8.20;;;2.70;;
52188;SDS011;38162;45.926;13.608;2023-08-01T04:09:44;4.45;;;2.45;;
52188;SDS011;38162;45.926;13.608;2023-08-01T04:12:09;6.00;;;2.40;;
52188;SDS011;38162;45.926;13.608;2023-08-01T04:14:35;5.88;;;2.17;;
52188;SDS011;38162;45.926;13.608;2023-08-01T04:17:01;6.60;;;2.45;;
52188;SDS011;38162;45.926;13.608;2023-08-01T04:19:27;3.45;;;2.00;;
52188;SDS011;38162;45.926;13.608;2023-08-01T04:21:53;5.35;;;2.00;;
52188;SDS011;38162;45.926;13.608;2023-08-01T04:24:18;5.38;;;2.25;;
52188;SDS011;38162;45.926;13.608;2023-08-01T04:26:44;12.65;;;3.03;;
52188;SDS011;38162;45.926;13.608;2023-08-01T04:29:10;3.92;;;2.05;;
52188;SDS011;38162;45.926;13.608;2023-08-01T04:31:37;3.13;;;2.00;;
52188;SDS011;38162;45.926;13.608;2023-08-01T04:34:03;3.67;;;2.00;;
52188;SDS011;38162;45.926;13.608;2023-08-01T04:36:28;7.32;;;2.10;;
52188;SDS011;38162;45.926;13.608;2023-08-01T04:38:54;4.13;;;1.90;;
52188;SDS011;38162;45.926;13.608;2023-08-01T04:41:20;5.70;;;2.15;;
52188;SDS011;38162;45.926;13.608;2023-08-01T04:43:45;3.47;;;1.80;;
52188;SDS011;38162;45.926;13.608;2023-08-01T04:46:11;5.22;;;1.98;;
52188;SDS011;38162;45.926;13.608;2023-08-01T04:48:37;5.13;;;1.90;;
52188;SDS011;38162;45.926;13.608;2023-08-01T04:51:02;5.55;;;2.00;;
52188;SDS011;38162;45.926;13.608;2023-08-01T04:53:28;5.45;;;2.17;;
52188;SDS011;38162;45.926;13.608;2023-08-01T04:55:54;6.72;;;2.10;;
52188;SDS011;38162;45.926;13.608;2023-08-01T04:58:20;7.32;;;1.90;;
52188;SDS011;38162;45.926;13.608;2023-08-01T05:00:45;4.32;;;1.95;;
52188;SDS011;38162;45.926;13.608;2023-08-01T05:03:11;4.70;;;2.10;;
52188;SDS011;38162;45.926;13.608;2023-08-01T05:05:37;5.50;;;2.13;;
52188;SDS011;38162;45.926;13.608;2023-08-01T05:08:03;3.65;;;1.80;;
52188;SDS011;38162;45.926;13.608;2023-08-01T05:10:28;5.15;;;1.90;;
52188;SDS011;38162;45.926;13.608;2023-08-01T05:12:54;6.15;;;2.35;;
52188;SDS011;38162;45.926;13.608;2023-08-01T05:15:20;4.38;;;1.95;;
52188;SDS011;38162;45.926;13.608;2023-08-01T05:17:45;3.97;;;2.63;;
52188;SDS011;38162;45.926;13.608;2023-08-01T05:20:11;5.53;;;2.00;;
52188;SDS011;38162;45.926;13.608;2023-08-01T05:22:37;2.67;;;1.80;;
52188;SDS011;38162;45.926;13.608;2023-08-01T05:25:03;7.78;;;2.10;;
52188;SDS011;38162;45.926;13.608;2023-08-01T05:27:29;4.65;;;2.15;;
52188;SDS011;38162;45.926;13.608;2023-08-01T05:29:55;5.28;;;2.15;;
52188;SDS011;38162;45.926;13.608;2023-08-01T05:32:21;3.72;;;1.80;;
52188;SDS011;38162;45.926;13.608;2023-08-01T05:34:47;3.13;;;1.85;;
52188;SDS011;38162;45.926;13.608;2023-08-01T05:37:12;5.80;;;1.98;;
52188;SDS011;38162;45.926;13.608;2023-08-01T05:39:38;3.33;;;1.95;;
52188;SDS011;38162;45.926;13.608;2023-08-01T05:42:04;7.03;;;1.90;;
52188;SDS011;38162;45.926;13.608;2023-08-01T05:44:33;3.10;;;2.03;;
52188;SDS011;38162;45.926;13.608;2023-08-01T05:46:59;5.07;;;1.98;;
52188;SDS011;38162;45.926;13.608;2023-08-01T05:49:25;10.13;;;2.20;;
52188;SDS011;38162;45.926;13.608;2023-08-01T05:51:51;6.15;;;1.98;;
52188;SDS011;38162;45.926;13.608;2023-08-01T05:54:17;5.15;;;2.10;;
52188;SDS011;38162;45.926;13.608;2023-08-01T05:56:42;8.88;;;2.33;;
52188;SDS011;38162;45.926;13.608;2023-08-01T05:59:08;6.63;;;2.17;;
52188;SDS011;38162;45.926;13.608;2023-08-01T06:01:34;4.63;;;1.95;;
52188;SDS011;38162;45.926;13.608;2023-08-01T06:04:00;6.78;;;2.13;;
52188;SDS011;38162;45.926;13.608;2023-08-01T06:06:25;3.45;;;2.35;;
52188;SDS011;38162;45.926;13.608;2023-08-01T06:08:51;3.05;;;2.22;;
52188;SDS011;38162;45.926;13.608;2023-08-01T06:11:17;7.90;;;2.33;;
52188;SDS011;38162;45.926;13.608;2023-08-01T06:13:43;5.60;;;2.40;;
52188;SDS011;38162;45.926;13.608;2023-08-01T06:16:09;3.85;;;2.00;;
52188;SDS011;38162;45.926;13.608;2023-08-01T06:18:36;5.00;;;2.22;;
52188;SDS011;38162;45.926;13.608;2023-08-01T06:21:01;7.20;;;2.42;;
52188;SDS011;38162;45.926;13.608;2023-08-01T06:23:27;7.28;;;2.58;;
52188;SDS011;38162;45.926;13.608;2023-08-01T06:25:53;13.25;;;3.13;;
52188;SDS011;38162;45.926;13.608;2023-08-01T06:28:19;7.43;;;2.75;;
52188;SDS011;38162;45.926;13.608;2023-08-01T06:30:45;5.63;;;3.10;;
52188;SDS011;38162;45.926;13.608;2023-08-01T06:33:11;10.60;;;2.95;;
52188;SDS011;38162;45.926;13.608;2023-08-01T06:35:37;5.45;;;3.10;;
52188;SDS011;38162;45.926;13.608;2023-08-01T06:38:02;14.23;;;3.00;;
52188;SDS011;38162;45.926;13.608;2023-08-01T06:40:28;12.00;;;3.17;;
52188;SDS011;38162;45.926;13.608;2023-08-01T06:42:54;5.22;;;3.40;;
52188;SDS011;38162;45.926;13.608;2023-08-01T06:45:19;12.20;;;3.50;;
52188;SDS011;38162;45.926;13.608;2023-08-01T06:47:45;17.40;;;3.60;;
52188;SDS011;38162;45.926;13.608;2023-08-01T06:50:11;8.10;;;3.05;;
52188;SDS011;38162;45.926;13.608;2023-08-01T06:52:37;13.32;;;3.17;;
52188;SDS011;38162;45.926;13.608;2023-08-01T06:55:02;8.65;;;2.80;;
52188;SDS011;38162;45.926;13.608;2023-08-01T06:57:29;6.10;;;2.53;;
52188;SDS011;38162;45.926;13.608;2023-08-01T06:59:55;5.63;;;2.72;;
52188;SDS011;38162;45.926;13.608;2023-08-01T07:02:21;12.10;;;2.97;;
52188;SDS011;38162;45.926;13.608;2023-08-01T07:04:47;5.38;;;2.47;;
52188;SDS011;38162;45.926;13.608;2023-08-01T07:07:13;5.47;;;2.40;;
52188;SDS011;38162;45.926;13.608;2023-08-01T07:09:39;8.38;;;2.45;;
52188;SDS011;38162;45.926;13.608;2023-08-01T07:12:04;7.63;;;2.83;;
52188;SDS011;38162;45.926;13.608;2023-08-01T07:14:31;5.05;;;2.42;;
52188;SDS011;38162;45.926;13.608;2023-08-01T07:16:56;8.85;;;2.28;;
52188;SDS011;38162;45.926;13.608;2023-08-01T07:19:22;5.22;;;2.17;;
52188;SDS011;38162;45.926;13.608;2023-08-01T07:21:48;7.18;;;2.47;;
52188;SDS011;38162;45.926;13.608;2023-08-01T07:24:14;8.10;;;2.40;;
52188;SDS011;38162;45.926;13.608;2023-08-01T07:26:40;7.28;;;2.80;;
52188;SDS011;38162;45.926;13.608;2023-08-01T07:29:06;6.88;;;3.00;;
52188;SDS011;38162;45.926;13.608;2023-08-01T07:31:36;10.68;;;3.10;;
52188;SDS011;38162;45.926;13.608;2023-08-01T07:34:02;11.52;;;3.88;;
52188;SDS011;38162;45.926;13.608;2023-08-01T07:36:28;7.03;;;3.20;;
52188;SDS011;38162;45.926;13.608;2023-08-01T07:38:54;11.85;;;3.47;;
52188;SDS011;38162;45.926;13.608;2023-08-01T07:41:21;9.20;;;4.35;;
52188;SDS011;38162;45.926;13.608;2023-08-01T07:43:47;6.30;;;3.83;;
52188;SDS011;38162;45.926;13.608;2023-08-01T07:46:13;7.07;;;4.00;;
52188;SDS011;38162;45.926;13.608;2023-08-01T07:48:39;9.52;;;4.10;;
52188;SDS011;38162;45.926;13.608;2023-08-01T07:51:05;6.05;;;3.45;;
52188;SDS011;38162;45.926;13.608;2023-08-01T07:53:32;7.07;;;3.25;;
52188;SDS011;38162;45.926;13.608;2023-08-01T07:55:59;7.60;;;3.20;;
52188;SDS011;38162;45.926;13.608;2023-08-01T07:58:27;6.68;;;2.80;;
52188;SDS011;38162;45.926;13.608;2023-08-01T08:00:53;5.35;;;2.88;;
52188;SDS011;38162;45.926;13.608;2023-08-01T08:03:19;11.32;;;3.20;;
52188;SDS011;38162;45.926;13.608;2023-08-01T08:05:47;8.98;;;2.60;;
52188;SDS011;38162;45.926;13.608;2023-08-01T08:08:13;4.97;;;2.42;;
52188;SDS011;38162;45.926;13.608;2023-08-01T08:10:39;4.57;;;2.33;;
52188;SDS011;38162;45.926;13.608;2023-08-01T08:13:05;3.72;;;2.30;;
52188;SDS011;38162;45.926;13.608;2023-08-01T08:15:31;5.95;;;2.83;;
52188;SDS011;38162;45.926;13.608;2023-08-01T08:17:59;8.70;;;2.92;;
52188;SDS011;38162;45.926;13.608;2023-08-01T08:20:29;7.15;;;3.28;;
52188;SDS011;38162;45.926;13.608;2023-08-01T08:22:55;7.32;;;3.60;;
52188;SDS011;38162;45.926;13.608;2023-08-01T08:25:21;8.95;;;3.65;;
52188;SDS011;38162;45.926;13.608;2023-08-01T08:27:46;8.93;;;3.80;;
52188;SDS011;38162;45.926;13.608;2023-08-01T08:30:14;12.23;;;4.35;;
52188;SDS011;38162;45.926;13.608;2023-08-01T08:32:40;7.13;;;3.75;;
52188;SDS011;38162;45.926;13.608;2023-08-01T08:35:05;11.80;;;4.55;;
52188;SDS011;38162;45.926;13.608;2023-08-01T08:37:31;9.00;;;3.85;;
52188;SDS011;38162;45.926;13.608;2023-08-01T08:39:57;9.55;;;4.63;;
52188;SDS011;38162;45.926;13.608;2023-08-01T08:42:23;6.78;;;3.33;;
52188;SDS011;38162;45.926;13.608;2023-08-01T08:44:49;9.15;;;3.38;;
52188;SDS011;38162;45.926;13.608;2023-08-01T08:47:19;8.93;;;3.70;;
52188;SDS011;38162;45.926;13.608;2023-08-01T08:49:51;8.67;;;2.87;;
52188;SDS011;38162;45.926;13.608;2023-08-01T08:52:18;8.30;;;3.10;;
52188;SDS011;38162;45.926;13.608;2023-08-01T08:54:44;7.43;;;2.80;;
52188;SDS011;38162;45.926;13.608;2023-08-01T08:57:11;7.47;;;3.08;;
52188;SDS011;38162;45.926;13.608;2023-08-01T08:59:38;4.80;;;3.05;;
52188;SDS011;38162;45.926;13.608;2023-08-01T09:02:04;5.88;;;2.78;;
52188;SDS011;38162;45.926;13.608;2023-08-01T09:04:33;7.22;;;3.00;;
52188;SDS011;38162;45.926;13.608;2023-08-01T09:07:01;3.88;;;2.40;;
52188;SDS011;38162;45.926;13.608;2023-08-01T09:09:31;2.63;;;2.15;;
52188;SDS011;38162;45.926;13.608;2023-08-01T09:11:59;7.88;;;3.17;;
52188;SDS011;38162;45.926;13.608;2023-08-01T09:14:25;4.82;;;2.50;;
52188;SDS011;38162;45.926;13.608;2023-08-01T09:16:50;6.47;;;2.47;;
52188;SDS011;38162;45.926;13.608;2023-08-01T09:19:17;3.90;;;2.30;;
52188;SDS011;38162;45.926;13.608;2023-08-01T09:21:44;5.93;;;2.40;;
52188;SDS011;38162;45.926;13.608;2023-08-01T09:24:14;9.27;;;2.72;;
52188;SDS011;38162;45.926;13.608;2023-08-01T09:26:41;6.53;;;2.45;;
52188;SDS011;38162;45.926;13.608;2023-08-01T09:29:08;6.03;;;2.65;;
52188;SDS011;38162;45.926;13.608;2023-08-01T09:31:40;8.30;;;2.50;;
52188;SDS011;38162;45.926;13.608;2023-08-01T09:36:57;5.60;;;2.42;;
52188;SDS011;38162;45.926;13.608;2023-08-01T09:41:59;4.25;;;2.25;;
52188;SDS011;38162;45.926;13.608;2023-08-01T09:44:26;4.00;;;2.15;;
52188;SDS011;38162;45.926;13.608;2023-08-01T09:49:26;4.82;;;2.00;;
52188;SDS011;38162;45.926;13.608;2023-08-01T09:51:52;4.10;;;2.10;;
52188;SDS011;38162;45.926;13.608;2023-08-01T09:54:20;3.60;;;2.03;;
52188;SDS011;38162;45.926;13.608;2023-08-01T09:56:47;4.05;;;2.08;;
52188;SDS011;38162;45.926;13.608;2023-08-01T09:59:23;4.28;;;1.63;;
52188;SDS011;38162;45.926;13.608;2023-08-01T10:01:51;2.47;;;1.90;;
52188;SDS011;38162;45.926;13.608;2023-08-01T10:04:22;4.53;;;1.92;;
52188;SDS011;38162;45.926;13.608;2023-08-01T10:09:19;2.33;;;1.63;;
52188;SDS011;38162;45.926;13.608;2023-08-01T10:11:47;4.60;;;1.95;;
52188;SDS011;38162;45.926;13.608;2023-08-01T10:14:16;5.00;;;1.67;;
52188;SDS011;38162;45.926;13.608;2023-08-01T10:16:44;4.57;;;1.70;;
52188;SDS011;38162;45.926;13.608;2023-08-01T10:19:12;4.28;;;1.88;;
52188;SDS011;38162;45.926;13.608;2023-08-01T10:21:38;3.75;;;1.92;;
52188;SDS011;38162;45.926;13.608;2023-08-01T10:24:06;3.65;;;1.70;;
52188;SDS011;38162;45.926;13.608;2023-08-01T10:26:33;3.38;;;1.83;;
52188;SDS011;38162;45.926;13.608;2023-08-01T10:29:00;4.40;;;1.92;;
52188;SDS011;38162;45.926;13.608;2023-08-01T10:31:27;1.75;;;1.52;;
52188;SDS011;38162;45.926;13.608;2023-08-01T10:34:02;2.15;;;1.83;;
52188;SDS011;38162;45.926;13.608;2023-08-01T10:36:31;2.08;;;1.45;;
52188;SDS011;38162;45.926;13.608;2023-08-01T10:38:58;2.92;;;1.67;;
52188;SDS011;38162;45.926;13.608;2023-08-01T10:44:09;3.88;;;1.92;;
52188;SDS011;38162;45.926;13.608;2023-08-01T10:52:15;3.67;;;2.30;;
52188;SDS011;38162;45.926;13.608;2023-08-01T10:55:01;2.08;;;1.70;;
52188;SDS011;38162;45.926;13.608;2023-08-01T10:57:28;3.95;;;2.10;;
52188;SDS011;38162;45.926;13.608;2023-08-01T10:59:59;3.38;;;1.73;;
52188;SDS011;38162;45.926;13.608;2023-08-01T11:02:26;2.67;;;2.00;;
52188;SDS011;38162;45.926;13.608;2023-08-01T11:04:55;2.35;;;1.60;;
52188;SDS011;38162;45.926;13.608;2023-08-01T11:07:25;5.05;;;2.20;;
52188;SDS011;38162;45.926;13.608;2023-08-01T11:10:04;1.55;;;1.40;;
52188;SDS011;38162;45.926;13.608;2023-08-01T11:12:37;5.93;;;2.35;;
52188;SDS011;38162;45.926;13.608;2023-08-01T11:15:08;2.25;;;1.65;;
52188;SDS011;38162;45.926;13.608;2023-08-01T11:17:38;3.03;;;1.83;;
52188;SDS011;38162;45.926;13.608;2023-08-01T11:20:06;2.70;;;1.67;;
52188;SDS011;38162;45.926;13.608;2023-08-01T11:22:48;3.70;;;1.45;;
52188;SDS011;38162;45.926;13.608;2023-08-01T11:25:33;2.20;;;1.73;;
52188;SDS011;38162;45.926;13.608;2023-08-01T11:28:08;6.75;;;1.80;;
52188;SDS011;38162;45.926;13.608;2023-08-01T11:30:38;8.13;;;2.00;;
52188;SDS011;38162;45.926;13.608;2023-08-01T11:33:18;1.92;;;1.63;;
52188;SDS011;38162;45.926;13.608;2023-08-01T11:35:45;2.72;;;1.80;;
52188;SDS011;38162;45.926;13.608;2023-08-01T11:38:11;3.05;;;1.80;;
52188;SDS011;38162;45.926;13.608;2023-08-01T11:40:37;6.10;;;1.80;;
52188;SDS011;38162;45.926;13.608;2023-08-01T11:43:04;3.53;;;1.92;;
52188;SDS011;38162;45.926;13.608;2023-08-01T11:45:29;4.45;;;1.80;;
52188;SDS011;38162;45.926;13.608;2023-08-01T11:47:55;1.90;;;1.75;;
52188;SDS011;38162;45.926;13.608;2023-08-01T11:50:21;5.10;;;2.20;;
52188;SDS011;38162;45.926;13.608;2023-08-01T11:52:48;5.07;;;1.73;;
52188;SDS011;38162;45.926;13.608;2023-08-01T11:55:21;2.67;;;1.70;;
52188;SDS011;38162;45.926;13.608;2023-08-01T11:57:51;5.20;;;1.80;;
52188;SDS011;38162;45.926;13.608;2023-08-01T12:00:21;2.67;;;1.67;;
52188;SDS011;38162;45.926;13.608;2023-08-01T12:02:51;3.20;;;1.70;;
52188;SDS011;38162;45.926;13.608;2023-08-01T12:05:32;3.42;;;1.75;;
52188;SDS011;38162;45.926;13.608;2023-08-01T12:08:09;3.85;;;1.55;;
52188;SDS011;38162;45.926;13.608;2023-08-01T12:10:42;2.28;;;1.50;;
52188;SDS011;38162;45.926;13.608;2023-08-01T12:13:20;3.80;;;1.73;;
52188;SDS011;38162;45.926;13.608;2023-08-01T12:15:47;2.20;;;1.50;;
52188;SDS011;38162;45.926;13.608;2023-08-01T12:18:24;4.93;;;1.70;;
52188;SDS011;38162;45.926;13.608;2023-08-01T12:20:51;2.25;;;1.70;;
52188;SDS011;38162;45.926;13.608;2023-08-01T12:23:17;2.88;;;1.58;;
52188;SDS011;38162;45.926;13.608;2023-08-01T12:25:43;2.63;;;1.70;;
52188;SDS011;38162;45.926;13.608;2023-08-01T12:28:10;2.50;;;1.80;;
52188;SDS011;38162;45.926;13.608;2023-08-01T12:30:39;2.22;;;1.58;;
52188;SDS011;38162;45.926;13.608;2023-08-01T12:33:06;2.63;;;1.60;;
52188;SDS011;38162;45.926;13.608;2023-08-01T12:35:32;2.42;;;1.67;;
52188;SDS011;38162;45.926;13.608;2023-08-01T12:37:58;4.70;;;1.70;;
52188;SDS011;38162;45.926;13.608;2023-08-01T12:40:24;2.72;;;1.50;;
52188;SDS011;38162;45.926;13.608;2023-08-01T12:42:50;1.73;;;1.38;;
52188;SDS011;38162;45.926;13.608;2023-08-01T12:45:15;4.85;;;1.90;;
52188;SDS011;38162;45.926;13.608;2023-08-01T12:47:45;3.10;;;1.80;;
52188;SDS011;38162;45.926;13.608;2023-08-01T12:50:14;5.03;;;1.90;;
52188;SDS011;38162;45.926;13.608;2023-08-01T12:52:40;2.50;;;1.70;;
52188;SDS011;38162;45.926;13.608;2023-08-01T12:55:06;4.65;;;1.80;;
52188;SDS011;38162;45.926;13.608;2023-08-01T12:57:32;6.40;;;2.10;;
52188;SDS011;38162;45.926;13.608;2023-08-01T12:59:59;2.78;;;1.75;;
52188;SDS011;38162;45.926;13.608;2023-08-01T13:02:24;3.47;;;1.90;;
52188;SDS011;38162;45.926;13.608;2023-08-01T13:04:51;4.65;;;1.90;;
52188;SDS011;38162;45.926;13.608;2023-08-01T13:07:17;4.78;;;2.00;;
52188;SDS011;38162;45.926;13.608;2023-08-01T13:09:43;4.38;;;2.15;;
52188;SDS011;38162;45.926;13.608;2023-08-01T13:12:09;4.78;;;2.05;;
52188;SDS011;38162;45.926;13.608;2023-08-01T13:14:34;5.20;;;2.13;;
52188;SDS011;38162;45.926;13.608;2023-08-01T13:17:01;3.08;;;2.60;;
52188;SDS011;38162;45.926;13.608;2023-08-01T13:22:43;5.40;;;2.25;;
52188;SDS011;38162;45.926;13.608;2023-08-01T13:25:12;3.22;;;2.17;;
52188;SDS011;38162;45.926;13.608;2023-08-01T13:27:39;7.47;;;2.40;;
52188;SDS011;38162;45.926;13.608;2023-08-01T13:30:05;6.65;;;2.38;;
52188;SDS011;38162;45.926;13.608;2023-08-01T13:32:35;6.72;;;2.42;;
52188;SDS011;38162;45.926;13.608;2023-08-01T13:35:01;4.40;;;2.60;;
52188;SDS011;38162;45.926;13.608;2023-08-01T13:37:28;8.32;;;3.05;;
52188;SDS011;38162;45.926;13.608;2023-08-01T13:39:55;3.95;;;2.20;;
52188;SDS011;38162;45.926;13.608;2023-08-01T13:42:22;4.00;;;2.60;;
52188;SDS011;38162;45.926;13.608;2023-08-01T13:44:48;7.10;;;3.15;;
52188;SDS011;38162;45.926;13.608;2023-08-01T13:47:14;2.78;;;2.22;;
52188;SDS011;38162;45.926;13.608;2023-08-01T13:49:40;6.43;;;2.40;;
52188;SDS011;38162;45.926;13.608;2023-08-01T13:52:06;4.57;;;2.60;;
52188;SDS011;38162;45.926;13.608;2023-08-01T13:54:32;3.63;;;2.50;;
52188;SDS011;38162;45.926;13.608;2023-08-01T13:56:57;5.60;;;2.53;;
52188;SDS011;38162;45.926;13.608;2023-08-01T13:59:23;5.70;;;2.38;;
52188;SDS011;38162;45.926;13.608;2023-08-01T14:01:49;5.50;;;2.65;;
52188;SDS011;38162;45.926;13.608;2023-08-01T14:04:15;8.43;;;2.50;;
52188;SDS011;38162;45.926;13.608;2023-08-01T14:06:41;5.50;;;2.97;;
52188;SDS011;38162;45.926;13.608;2023-08-01T14:09:08;4.22;;;2.67;;
52188;SDS011;38162;45.926;13.608;2023-08-01T14:11:34;4.05;;;2.35;;
52188;SDS011;38162;45.926;13.608;2023-08-01T14:14:00;7.22;;;2.67;;
52188;SDS011;38162;45.926;13.608;2023-08-01T14:16:29;7.65;;;2.40;;
52188;SDS011;38162;45.926;13.608;2023-08-01T14:18:59;6.78;;;2.58;;
52188;SDS011;38162;45.926;13.608;2023-08-01T14:21:25;5.95;;;2.70;;
52188;SDS011;38162;45.926;13.608;2023-08-01T14:23:51;3.40;;;2.05;;
52188;SDS011;38162;45.926;13.608;2023-08-01T14:26:16;4.43;;;2.20;;
52188;SDS011;38162;45.926;13.608;2023-08-01T14:28:45;8.23;;;3.00;;
52188;SDS011;38162;45.926;13.608;2023-08-01T14:31:11;7.25;;;2.72;;
52188;SDS011;38162;45.926;13.608;2023-08-01T14:33:37;5.75;;;2.60;;
52188;SDS011;38162;45.926;13.608;2023-08-01T14:36:06;4.70;;;2.30;;
52188;SDS011;38162;45.926;13.608;2023-08-01T14:38:34;5.90;;;2.25;;
52188;SDS011;38162;45.926;13.608;2023-08-01T14:41:01;4.28;;;2.80;;
52188;SDS011;38162;45.926;13.608;2023-08-01T14:43:27;7.25;;;2.72;;
52188;SDS011;38162;45.926;13.608;2023-08-01T14:45:53;6.72;;;2.47;;
52188;SDS011;38162;45.926;13.608;2023-08-01T14:48:19;5.28;;;2.80;;
52188;SDS011;38162;45.926;13.608;2023-08-01T14:50:46;8.48;;;2.72;;
52188;SDS011;38162;45.926;13.608;2023-08-01T14:53:15;6.10;;;2.70;;